createdAt,value
2023-03-27T00:03:26.329Z,98899.39
2023-03-27T00:08:41.723Z,98890.92
2023-03-27T00:13:54.997Z,98888.55
2023-03-27T00:19:20.270Z,98884.85
2023-03-27T00:25:04.444Z,98864.45
2023-03-27T00:30:11.005Z,98860.52
2023-03-27T00:35:14.814Z,98858.39
2023-03-27T00:40:53.614Z,98858.06
2023-03-27T00:46:21.948Z,98866.09
2023-03-27T00:51:58.240Z,98867.91
2023-03-27T00:57:22.051Z,98863.43
2023-03-27T01:02:45.690Z,98856.91
2023-03-27T01:08:02.690Z,98855.88
2023-03-27T01:13:20.892Z,98867.66
2023-03-27T01:18:41.107Z,98871.41
2023-03-27T01:24:53.702Z,98873.96
2023-03-27T01:30:24.590Z,98874.50
2023-03-27T01:36:20.069Z,98868.70
2023-03-27T01:41:55.631Z,98870.65
2023-03-27T01:47:32.707Z,98877.81
2023-03-27T01:52:42.244Z,98879.54
2023-03-27T01:58:34.145Z,98886.54
2023-03-27T02:04:20.801Z,98885.08
2023-03-27T02:09:58.400Z,98885.07
2023-03-27T02:15:43.695Z,98879.30
2023-03-27T02:20:59.568Z,98872.61
2023-03-27T02:26:03.957Z,98874.92
2023-03-27T02:32:13.586Z,98874.64
2023-03-27T02:38:23.630Z,98881.21
2023-03-27T02:44:00.046Z,98879.16
2023-03-27T02:49:36.569Z,98873.54
2023-03-27T02:55:33.011Z,98871.92
2023-03-27T03:00:51.932Z,98877.66
2023-03-27T03:06:34.968Z,98874.31
2023-03-27T03:11:57.528Z,98871.14
2023-03-27T03:17:03.832Z,98879.79
2023-03-27T03:22:15.634Z,98888.50
2023-03-27T03:28:19.748Z,98887.98
2023-03-27T03:33:57.297Z,98878.58
2023-03-27T03:39:01.028Z,98873.10
2023-03-27T03:44:24.778Z,98879.71
2023-03-27T03:49:29.972Z,98884.97
2023-03-27T03:54:54.003Z,98888.49
2023-03-27T04:00:08.701Z,98887.95
2023-03-27T04:05:22.791Z,98886.14
2023-03-27T04:10:33.626Z,98885.99
2023-03-27T04:15:52.923Z,98893.16
2023-03-27T04:21:26.595Z,98898.58
2023-03-27T04:27:08.427Z,98894.92
2023-03-27T04:32:31.772Z,98904.90
2023-03-27T04:38:17.525Z,98905.83
2023-03-27T04:43:30.929Z,98905.30
2023-03-27T04:49:39.516Z,98914.95
2023-03-27T04:55:26.924Z,98919.67
2023-03-27T05:00:44.038Z,98927.69
2023-03-27T05:06:23.064Z,98931.24
2023-03-27T05:12:26.642Z,98943.45
2023-03-27T05:18:03.007Z,98936.52
2023-03-27T05:24:01.086Z,98942.48
2023-03-27T05:29:47.436Z,98942.86
2023-03-27T05:35:20.498Z,98948.33
2023-03-27T05:40:41.906Z,98953.84
2023-03-27T05:46:42.814Z,98956.42
2023-03-27T05:52:33.821Z,98957.91
2023-03-27T05:58:11.589Z,98963.11
2023-03-27T06:03:35.819Z,98965.46
2023-03-27T06:08:52.995Z,98972.08
2023-03-27T06:15:07.144Z,98981.09
2023-03-27T06:20:52.018Z,98979.56
2023-03-27T06:25:59.506Z,98987.85
2023-03-27T06:31:39.334Z,98999.34
2023-03-27T06:37:09.021Z,99002.39
2023-03-27T06:43:17.528Z,99003.29
2023-03-27T06:48:36.298Z,99016.74
2023-03-27T06:53:55.297Z,99020.30
2023-03-27T06:59:09.166Z,99019.23
2023-03-27T07:04:16.853Z,99027.27
2023-03-27T07:09:41.076Z,99026.95
2023-03-27T07:15:36.500Z,99026.02
2023-03-27T07:20:40.488Z,99026.52
2023-03-27T07:25:53.425Z,99029.90
2023-03-27T07:36:31.972Z,99042.05
2023-03-27T07:42:02.528Z,99046.36
2023-03-27T07:47:35.168Z,99057.06
2023-03-27T07:53:34.093Z,99060.45
2023-03-27T07:58:57.821Z,99075.21
2023-03-27T08:04:07.591Z,99084.78
2023-03-27T08:09:42.123Z,99086.55
2023-03-27T08:15:09.950Z,99087.30
2023-03-27T08:20:33.995Z,99099.06
2023-03-27T08:25:50.385Z,99105.36
2023-03-27T08:31:16.456Z,99116.84
2023-03-27T08:36:53.931Z,99120.81
2023-03-27T08:42:34.337Z,99127.27
2023-03-27T08:47:52.344Z,99136.55
2023-03-27T08:54:06.338Z,99149.35
2023-03-27T08:59:33.167Z,99153.23
2023-03-27T09:05:35.192Z,99151.05
2023-03-27T09:10:50.971Z,99156.73
2023-03-27T09:17:20.013Z,99159.21
2023-03-27T09:23:34.673Z,99166.71
2023-03-27T09:29:39.720Z,99181.98
2023-03-27T09:35:22.460Z,99190.48
2023-03-27T09:41:10.359Z,99194.63
2023-03-27T09:46:20.309Z,99196.38
2023-03-27T09:51:46.198Z,99199.86
2023-03-27T09:57:16.579Z,99208.91
2023-03-27T10:02:30.844Z,99222.23
2023-03-27T10:07:40.774Z,99230.85
2023-03-27T10:13:26.888Z,99229.05
2023-03-27T10:18:50.656Z,99235.40
2023-03-27T10:24:44.280Z,99241.35
2023-03-27T10:30:45.435Z,99240.85
2023-03-27T10:37:00.787Z,99246.98
2023-03-27T10:42:48.627Z,99251.00
2023-03-27T10:48:39.013Z,99252.98
2023-03-27T10:54:02.206Z,99249.51
2023-03-27T10:59:49.225Z,99255.42
2023-03-27T11:05:43.440Z,99262.77
2023-03-27T11:11:28.396Z,99257.91
2023-03-27T11:16:59.673Z,99261.41
2023-03-27T11:23:02.077Z,99258.96
2023-03-27T11:28:34.122Z,99260.55
2023-03-27T11:34:28.370Z,99257.63
2023-03-27T11:40:00.465Z,99255.44
2023-03-27T11:46:24.828Z,99256.44
2023-03-27T11:51:34.853Z,99256.59
2023-03-27T11:57:21.070Z,99257.45
2023-03-27T12:03:31.909Z,99258.47
2023-03-27T12:09:44.310Z,99258.89
2023-03-27T12:15:58.348Z,99260.97
2023-03-27T12:21:29.437Z,99260.91
2023-03-27T12:28:04.925Z,99262.79
2023-03-27T12:34:20.031Z,99259.46
2023-03-27T12:39:56.823Z,99261.35
2023-03-27T12:45:28.885Z,99264.46
2023-03-27T12:51:03.205Z,99270.39
2023-03-27T12:57:10.118Z,99277.89
2023-03-27T13:03:37.072Z,99289.80
2023-03-27T13:09:34.375Z,99295.73
2023-03-27T13:15:47.597Z,99303.30
2023-03-27T13:22:16.835Z,99309.65
2023-03-27T13:28:16.264Z,99319.54
2023-03-27T13:34:32.111Z,99329.08
2023-03-27T13:40:41.417Z,99331.66
2023-03-27T13:46:41.015Z,99341.80
2023-03-27T13:52:51.081Z,99348.32
2023-03-27T13:58:49.637Z,99360.36
2023-03-27T14:04:47.540Z,99373.42
2023-03-27T14:10:36.694Z,99385.03
2023-03-27T14:16:42.426Z,99396.52
2023-03-27T14:21:56.477Z,99410.52
2023-03-27T14:27:41.436Z,99418.17
2023-03-27T14:33:05.190Z,99419.55
2023-03-27T14:38:25.010Z,99423.52
2023-03-27T14:44:13.627Z,99445.16
2023-03-27T14:49:36.059Z,99453.16
2023-03-27T14:54:55.037Z,99463.77
2023-03-27T15:00:22.427Z,99485.66
2023-03-27T15:06:27.165Z,99483.85
2023-03-27T15:12:25.784Z,99493.37
2023-03-27T15:17:43.196Z,99501.98
2023-03-27T15:23:26.365Z,99519.02
2023-03-27T15:28:41.629Z,99526.84
2023-03-27T15:34:51.838Z,99540.91
2023-03-27T15:40:58.564Z,99549.48
2023-03-27T15:46:42.730Z,99559.75
2023-03-27T15:52:47.553Z,99563.02
2023-03-27T15:58:35.979Z,99577.11
2023-03-27T16:03:58.989Z,99581.85
2023-03-27T16:10:12.492Z,99592.80
2023-03-27T16:16:21.941Z,99601.27
2023-03-27T16:22:26.367Z,99609.23
2023-03-27T16:28:33.424Z,99614.22
2023-03-27T16:33:45.292Z,99625.10
2023-03-27T16:39:11.803Z,99642.02
2023-03-27T16:44:41.284Z,99656.35
2023-03-27T16:50:37.600Z,99667.88
2023-03-27T16:56:18.742Z,99674.98
2023-03-27T17:02:37.317Z,99685.95
2023-03-27T17:08:52.554Z,99693.07
2023-03-27T17:33:34.191Z,99742.17
2023-03-27T17:39:41.287Z,99759.08
2023-03-27T17:45:30.124Z,99764.63
2023-03-27T17:51:53.198Z,99771.23
2023-03-27T17:58:16.555Z,99778.51
2023-03-27T18:04:58.275Z,99790.61
2023-03-27T18:10:34.763Z,99804.98
2023-03-27T18:16:21.809Z,99808.95
2023-03-27T18:22:09.934Z,99812.42
2023-03-27T18:28:01.505Z,99823.30
2023-03-27T18:34:18.399Z,99836.61
2023-03-27T18:39:47.448Z,99849.41
2023-03-27T18:46:03.110Z,99861.33
2023-03-27T18:57:38.933Z,99870.02
2023-03-27T19:03:18.339Z,99870.21
2023-03-27T19:08:33.562Z,99875.42
2023-03-27T19:20:31.348Z,99885.94
2023-03-27T19:25:55.594Z,99893.51
2023-03-27T19:31:59.720Z,99897.64
2023-03-27T19:38:10.513Z,99902.98
2023-03-27T19:43:25.809Z,99907.30
2023-03-27T19:49:02.453Z,99915.02
2023-03-27T19:54:40.743Z,99917.23
2023-03-27T20:00:58.907Z,99921.16
2023-03-27T20:06:48.226Z,99926.29
2023-03-27T20:12:57.824Z,99928.16
2023-03-27T20:18:42.655Z,99935.70
2023-03-27T20:24:39.748Z,99943.23
2023-03-27T20:30:15.030Z,99950.94
2023-03-27T20:35:37.881Z,99951.76
2023-03-27T20:41:13.781Z,99947.27
2023-03-27T20:46:37.603Z,99949.80
2023-03-27T20:52:15.482Z,99954.06
2023-03-27T20:58:11.254Z,99953.52
2023-03-27T21:04:35.421Z,99952.98
2023-03-27T21:10:15.592Z,99951.38
2023-03-27T21:15:55.716Z,99949.47
2023-03-27T21:21:39.985Z,99954.06
2023-03-27T21:27:26.861Z,99956.77
2023-03-27T21:32:53.767Z,99960.32
2023-03-27T21:38:53.786Z,99957.55
2023-03-27T21:44:11.511Z,99957.01
2023-03-27T21:49:46.523Z,99955.80
2023-03-27T21:55:40.505Z,99954.22
2023-03-27T22:01:45.106Z,99945.77
2023-03-27T22:07:14.153Z,99942.64
2023-03-27T22:12:46.587Z,99944.53
2023-03-27T22:18:50.710Z,99944.67
2023-03-27T22:24:54.877Z,99943.79
2023-03-27T22:30:18.824Z,99949.27
2023-03-27T22:35:38.043Z,99946.83
2023-03-27T22:41:01.760Z,99944.98
2023-03-27T22:46:34.559Z,99939.27
2023-03-27T22:51:41.123Z,99939.70
2023-03-27T22:57:45.124Z,99938.80
2023-03-27T23:03:45.043Z,99940.98
2023-03-27T23:09:41.996Z,99946.36
2023-03-27T23:15:30.231Z,99956.90
2023-03-27T23:20:34.118Z,99961.56
2023-03-27T23:25:42.561Z,99969.88
2023-03-27T23:30:58.890Z,99977.39
2023-03-27T23:36:10.514Z,99977.02
2023-03-27T23:41:15.460Z,99977.86
2023-03-27T23:46:19.063Z,99984.73
2023-03-27T23:51:22.463Z,99986.27
2023-03-27T23:56:25.905Z,99981.81
